Jonesville, South Carolina
Current Conditions -  °F | °C
As of 4:35 PM on Thursday 18 Dec 2014 (Local Time) from KSPA Reporting Station
Scattered Clouds Scattered Clouds  
Wind Chill: 59°   Ceiling: Unl
Heat Index: 59°   Visibility: 10mi
Dew Point: 27°   Wind: 3mph
Humidity: 29%   Direction: 210°SSW
Pressure: 30.07"   Gusts: NA
Location:  34.84°N, 81.68°W
Report Text: KSPA 182135Z AUTO 21003KT 10SM SCT110 15/M03 A3007 RMK AO2
Loading
Personal Weather Stations






























Interactive Weather Map New forecast layout! Learn more

10-Day Weather Forecast

Advertisements
Track Severe Weather on mobile